Time;durP1;ratioP1;P1;durP2;ratioP2;P2;SDS_P1;SDS_P2;PMS_P1;PMS_P2;Temp;Humidity;BMP_temperature;BMP_pressure;BME280_temperature;BME280_humidity;BME280_pressure;Samples;Min_cycle;Max_cycle;Signal;HPM_P1;HPM_P2
2021/01/23 00:00:55;;;;;;;61.23;28.50;;;;;;;;;;5073683;28;20180;-71
2021/01/23 00:03:21;;;;;;;59.60;27.43;;;;;;;;;;5075290;28;20198;-72
2021/01/23 00:05:46;;;;;;;61.50;27.77;;;;;;;;;;5085229;28;20206;-71
2021/01/23 00:08:12;;;;;;;56.67;27.33;;;;;;;;;;5074146;28;20186;-72
2021/01/23 00:10:38;;;;;;;55.73;28.63;;;;;;;;;;5086236;28;20546;-72
2021/01/23 00:13:03;;;;;;;57.87;27.13;;;;;;;;;;5072968;28;20204;-72
2021/01/23 00:15:28;;;;;;;60.83;28.80;;;;;;;;;;5083412;28;20179;-72
2021/01/23 00:17:53;;;;;;;64.13;28.57;;;;;;;;;;5072993;28;20188;-72
2021/01/23 00:20:19;;;;;;;60.93;28.37;;;;;;;;;;5070404;28;20244;-72
2021/01/23 00:22:44;;;;;;;58.47;27.47;;;;;;;;;;5076174;28;20191;-72
2021/01/23 00:25:10;;;;;;;62.07;28.43;;;;;;;;;;5086115;28;20282;-72
2021/01/23 00:27:37;;;;;;;65.70;29.20;;;;;;;;;;5074083;28;20558;-72
2021/01/23 00:30:04;;;;;;;61.57;28.47;;;;;;;;;;5087986;28;20180;-72
2021/01/23 00:32:29;;;;;;;74.27;28.93;;;;;;;;;;5074658;28;20844;-71
2021/01/23 00:34:54;;;;;;;65.70;30.43;;;;;;;;;;5087339;28;20183;-71
2021/01/23 00:37:20;;;;;;;64.73;30.00;;;;;;;;;;5067507;28;20191;-71
2021/01/23 00:39:45;;;;;;;66.30;30.07;;;;;;;;;;5078315;28;20223;-72
2021/01/23 00:42:10;;;;;;;66.73;29.33;;;;;;;;;;5082315;28;20184;-71
2021/01/23 00:44:36;;;;;;;63.00;29.37;;;;;;;;;;5079744;28;20192;-72
2021/01/23 00:47:01;;;;;;;63.97;29.97;;;;;;;;;;5089074;28;20191;-71
2021/01/23 00:49:26;;;;;;;61.67;29.27;;;;;;;;;;5077770;28;20566;-71
2021/01/23 00:51:52;;;;;;;70.60;29.90;;;;;;;;;;5087144;28;20212;-71
2021/01/23 00:54:17;;;;;;;63.90;28.77;;;;;;;;;;5082330;28;20188;-71
2021/01/23 00:56:42;;;;;;;65.40;30.17;;;;;;;;;;5088928;28;20199;-71
2021/01/23 00:59:08;;;;;;;61.77;28.50;;;;;;;;;;5083953;28;20266;-71
2021/01/23 01:01:33;;;;;;;62.97;28.67;;;;;;;;;;5088803;28;20196;-71
2021/01/23 01:03:58;;;;;;;60.47;28.43;;;;;;;;;;5077557;28;20188;-71
2021/01/23 01:06:24;;;;;;;68.53;29.03;;;;;;;;;;5086111;28;20215;-71
2021/01/23 01:08:49;;;;;;;54.30;28.20;;;;;;;;;;5080706;28;20197;-71
2021/01/23 01:11:14;;;;;;;67.97;28.47;;;;;;;;;;5079451;28;20638;-71
2021/01/23 01:13:39;;;;;;;58.57;28.00;;;;;;;;;;5090969;28;20662;-71
2021/01/23 01:16:05;;;;;;;58.17;26.47;;;;;;;;;;5080355;28;20207;-71
2021/01/23 01:18:30;;;;;;;53.23;26.53;;;;;;;;;;5087425;28;20191;-71
2021/01/23 01:20:56;;;;;;;54.03;27.47;;;;;;;;;;5079864;28;20198;-71
2021/01/23 01:23:21;;;;;;;60.03;27.03;;;;;;;;;;5091091;28;20179;-71
2021/01/23 01:25:46;;;;;;;62.13;27.97;;;;;;;;;;5079842;28;20557;-71
2021/01/23 01:28:12;;;;;;;54.87;27.83;;;;;;;;;;5085903;28;20190;-71
2021/01/23 01:30:37;;;;;;;58.33;30.87;;;;;;;;;;5078955;28;20192;-71
2021/01/23 01:33:03;;;;;;;64.90;34.37;;;;;;;;;;5088066;28;20267;-71
2021/01/23 01:35:28;;;;;;;65.47;33.67;;;;;;;;;;5080224;28;20191;-71
2021/01/23 01:37:53;;;;;;;63.20;33.00;;;;;;;;;;5084309;28;20184;-71
2021/01/23 01:40:19;;;;;;;60.27;30.20;;;;;;;;;;5088903;28;20628;-71
2021/01/23 01:42:44;;;;;;;57.53;30.73;;;;;;;;;;5078099;28;20184;-71
2021/01/23 01:45:10;;;;;;;58.40;29.83;;;;;;;;;;5087072;28;20183;-71
2021/01/23 01:47:37;;;;;;;52.17;27.43;;;;;;;;;;5080588;28;20285;-71
2021/01/23 01:50:03;;;;;;;53.80;26.53;;;;;;;;;;5087634;28;20195;-71
2021/01/23 01:52:28;;;;;;;46.97;25.30;;;;;;;;;;5079334;28;20204;-71
2021/01/23 01:54:54;;;;;;;48.63;25.37;;;;;;;;;;5063355;28;20220;-71
2021/01/23 01:57:20;;;;;;;46.27;24.17;;;;;;;;;;5081728;28;20230;-71
2021/01/23 01:59:46;;;;;;;49.60;24.93;;;;;;;;;;5085108;28;20521;-71
2021/01/23 02:02:24;;;;;;;48.03;25.33;;;;;;;;;;5077846;28;20195;-71
2021/01/23 02:04:57;;;;;;;50.70;26.23;;;;;;;;;;5087116;28;20242;-71
2021/01/23 02:07:36;;;;;;;48.27;25.40;;;;;;;;;;5082220;28;20230;-71
2021/01/23 02:10:48;;;;;;;42.37;26.23;;;;;;;;;;5086800;28;20561;-71
2021/01/23 02:13:28;;;;;;;43.50;23.93;;;;;;;;;;5072736;28;20242;-71
2021/01/23 02:16:12;;;;;;;51.70;27.03;;;;;;;;;;5089810;28;20180;-71
2021/01/23 02:19:09;;;;;;;50.27;24.90;;;;;;;;;;5077236;28;20198;-71
2021/01/23 02:22:07;;;;;;;53.87;25.90;;;;;;;;;;5085172;28;20190;-71
2021/01/23 02:24:33;;;;;;;44.93;25.17;;;;;;;;;;5071746;28;20192;-71
2021/01/23 02:26:58;;;;;;;44.73;23.80;;;;;;;;;;5086477;28;20191;-71
2021/01/23 02:29:44;;;;;;;41.33;24.87;;;;;;;;;;5079456;28;20187;-71
2021/01/23 02:32:11;;;;;;;45.80;23.13;;;;;;;;;;5085494;28;20273;-71
2021/01/23 02:34:37;;;;;;;42.90;24.30;;;;;;;;;;5078523;28;20199;-71
2021/01/23 02:37:03;;;;;;;42.47;24.00;;;;;;;;;;5071051;28;20188;-71
2021/01/23 02:39:30;;;;;;;39.73;22.23;;;;;;;;;;5079512;28;20259;-71
2021/01/23 02:41:55;;;;;;;42.07;22.43;;;;;;;;;;5087938;28;20184;-71
2021/01/23 02:44:21;;;;;;;40.80;23.03;;;;;;;;;;5077920;28;20257;-71
2021/01/23 02:46:50;;;;;;;39.83;22.63;;;;;;;;;;5085470;28;20192;-71
2021/01/23 02:49:16;;;;;;;43.97;21.93;;;;;;;;;;5081914;28;20222;-71
2021/01/23 02:51:57;;;;;;;44.83;23.07;;;;;;;;;;5084375;28;20236;-71
2021/01/23 02:54:56;;;;;;;41.30;22.27;;;;;;;;;;5061269;28;20187;-71
2021/01/23 02:57:23;;;;;;;38.50;22.17;;;;;;;;;;5085148;28;20200;-71
2021/01/23 02:59:57;;;;;;;42.97;21.87;;;;;;;;;;5083149;28;20675;-71
2021/01/23 03:02:24;;;;;;;42.23;22.10;;;;;;;;;;5086703;28;20218;-71
2021/01/23 03:04:50;;;;;;;39.20;22.50;;;;;;;;;;5089779;28;20191;-71
2021/01/23 03:07:16;;;;;;;39.33;22.37;;;;;;;;;;5077770;28;20191;-71
2021/01/23 03:09:42;;;;;;;40.17;22.07;;;;;;;;;;5086858;28;20240;-71
2021/01/23 03:12:08;;;;;;;38.30;21.97;;;;;;;;;;5076775;28;20204;-71
2021/01/23 03:14:35;;;;;;;43.00;22.43;;;;;;;;;;5089185;28;20202;-71
2021/01/23 03:17:00;;;;;;;42.37;20.93;;;;;;;;;;5075494;28;20195;-71
2021/01/23 03:19:25;;;;;;;35.63;21.47;;;;;;;;;;5081091;28;20640;-71
2021/01/23 03:21:51;;;;;;;36.10;21.20;;;;;;;;;;5077382;28;20241;-71
2021/01/23 03:24:18;;;;;;;39.43;21.83;;;;;;;;;;5090874;28;20187;-71
2021/01/23 03:26:44;;;;;;;37.57;20.83;;;;;;;;;;5076700;28;20745;-71
2021/01/23 03:29:10;;;;;;;40.33;20.87;;;;;;;;;;5079186;28;20691;-71
2021/01/23 03:31:36;;;;;;;37.97;21.43;;;;;;;;;;5073880;28;20216;-71
2021/01/23 03:34:02;;;;;;;35.10;20.80;;;;;;;;;;5081477;28;20230;-71
2021/01/23 03:36:28;;;;;;;36.60;20.60;;;;;;;;;;5084767;28;20196;-71
2021/01/23 03:38:53;;;;;;;35.87;21.33;;;;;;;;;;5083447;28;20238;-71
2021/01/23 03:41:19;;;;;;;35.47;21.73;;;;;;;;;;5067424;28;20185;-71
2021/01/23 03:43:44;;;;;;;34.17;21.47;;;;;;;;;;5076181;28;20183;-71
2021/01/23 03:46:10;;;;;;;38.90;21.80;;;;;;;;;;5085468;28;20188;-71
2021/01/23 03:48:35;;;;;;;42.47;21.83;;;;;;;;;;5059478;28;20310;-71
2021/01/23 03:51:01;;;;;;;36.40;22.27;;;;;;;;;;5086128;28;20176;-71
2021/01/23 03:53:26;;;;;;;37.53;21.97;;;;;;;;;;5076965;28;20204;-71
2021/01/23 03:55:51;;;;;;;39.37;20.67;;;;;;;;;;5084129;28;20183;-71
2021/01/23 03:58:18;;;;;;;39.03;21.93;;;;;;;;;;5076143;28;20222;-71
2021/01/23 04:00:44;;;;;;;41.33;21.00;;;;;;;;;;5085963;28;20255;-71
2021/01/23 04:03:09;;;;;;;33.57;21.10;;;;;;;;;;5079323;28;20188;-71
2021/01/23 04:05:35;;;;;;;40.17;20.90;;;;;;;;;;5084262;28;20589;-71
2021/01/23 04:08:00;;;;;;;37.40;21.73;;;;;;;;;;5086469;28;20249;-71
2021/01/23 04:10:26;;;;;;;35.20;20.47;;;;;;;;;;5057854;28;20233;-71
2021/01/23 04:12:51;;;;;;;42.03;20.83;;;;;;;;;;5089073;28;20202;-71
2021/01/23 04:15:16;;;;;;;42.57;21.43;;;;;;;;;;5075814;28;20179;-71
2021/01/23 04:17:42;;;;;;;41.40;22.03;;;;;;;;;;5087795;28;20237;-71
2021/01/23 04:20:07;;;;;;;37.40;20.80;;;;;;;;;;5075776;28;20202;-71
2021/01/23 04:22:33;;;;;;;45.50;21.27;;;;;;;;;;5086672;28;20172;-71
2021/01/23 04:24:58;;;;;;;33.93;21.27;;;;;;;;;;5076461;28;20190;-71
2021/01/23 04:27:24;;;;;;;32.40;20.57;;;;;;;;;;5083152;28;20188;-71
2021/01/23 04:29:49;;;;;;;37.63;20.40;;;;;;;;;;5076435;28;20545;-71
2021/01/23 04:32:15;;;;;;;38.53;20.23;;;;;;;;;;5087157;28;20245;-71
2021/01/23 04:34:40;;;;;;;37.33;19.27;;;;;;;;;;5074590;28;20199;-71
2021/01/23 04:37:05;;;;;;;42.33;20.83;;;;;;;;;;5085609;28;20187;-71
2021/01/23 04:39:30;;;;;;;35.50;20.90;;;;;;;;;;5084802;28;20232;-71
2021/01/23 04:41:56;;;;;;;35.23;20.17;;;;;;;;;;5077404;28;20176;-71
2021/01/23 04:44:21;;;;;;;34.03;19.13;;;;;;;;;;5085143;28;20194;-71
2021/01/23 04:46:47;;;;;;;34.97;19.03;;;;;;;;;;5077602;28;20184;-71
2021/01/23 04:49:12;;;;;;;39.43;20.13;;;;;;;;;;5084699;28;20192;-71
2021/01/23 04:51:38;;;;;;;32.13;18.40;;;;;;;;;;5058724;28;20204;-71
2021/01/23 04:54:05;;;;;;;35.77;19.47;;;;;;;;;;5085152;28;20244;-71
2021/01/23 04:56:30;;;;;;;36.63;18.90;;;;;;;;;;5076797;28;20227;-71
2021/01/23 04:58:55;;;;;;;37.47;19.50;;;;;;;;;;5084335;28;20220;-71
2021/01/23 05:01:21;;;;;;;33.70;19.43;;;;;;;;;;5077325;28;20259;-71
2021/01/23 05:04:12;;;;;;;34.73;19.37;;;;;;;;;;5083028;28;20631;-71
2021/01/23 05:06:40;;;;;;;33.67;18.47;;;;;;;;;;5070924;28;20250;-71
2021/01/23 05:09:06;;;;;;;33.77;19.43;;;;;;;;;;5085427;28;20613;-71
2021/01/23 05:11:45;;;;;;;34.30;18.00;;;;;;;;;;5076488;28;20671;-71
2021/01/23 05:14:13;;;;;;;32.20;18.43;;;;;;;;;;5086679;28;20176;-71
2021/01/23 05:16:39;;;;;;;37.60;18.07;;;;;;;;;;5074817;28;20212;-71
2021/01/23 05:19:05;;;;;;;26.50;16.67;;;;;;;;;;5086629;28;20211;-71
2021/01/23 05:21:35;;;;;;;33.40;17.23;;;;;;;;;;5083468;28;20184;-71
2021/01/23 05:24:13;;;;;;;32.07;17.73;;;;;;;;;;5078340;28;20189;-71
2021/01/23 05:26:40;;;;;;;29.33;15.90;;;;;;;;;;5082706;28;20184;-71
2021/01/23 05:29:13;;;;;;;31.87;16.37;;;;;;;;;;5078349;28;20241;-71
2021/01/23 05:31:40;;;;;;;31.13;17.17;;;;;;;;;;5087233;28;20203;-71
2021/01/23 05:34:28;;;;;;;26.27;15.83;;;;;;;;;;5080519;28;20192;-71
2021/01/23 05:36:55;;;;;;;26.10;14.97;;;;;;;;;;5086634;28;20203;-71
2021/01/23 05:39:20;;;;;;;26.23;15.30;;;;;;;;;;5080752;28;20223;-71
2021/01/23 05:42:03;;;;;;;24.30;14.33;;;;;;;;;;5087557;28;20583;-71
2021/01/23 05:44:28;;;;;;;24.40;15.90;;;;;;;;;;5073866;28;20539;-71
2021/01/23 05:46:54;;;;;;;24.73;15.43;;;;;;;;;;5086184;28;20194;-71
2021/01/23 05:49:19;;;;;;;22.00;14.37;;;;;;;;;;5076507;28;20275;-71
2021/01/23 05:51:45;;;;;;;26.60;15.40;;;;;;;;;;5087685;28;20216;-71
2021/01/23 05:54:10;;;;;;;26.50;15.00;;;;;;;;;;5081336;28;20192;-71
2021/01/23 05:56:36;;;;;;;30.50;15.37;;;;;;;;;;5085363;28;20555;-71
2021/01/23 05:59:03;;;;;;;23.57;14.53;;;;;;;;;;5079651;28;20184;-70
2021/01/23 06:01:29;;;;;;;24.00;14.10;;;;;;;;;;5086665;28;20263;-70
2021/01/23 06:03:57;;;;;;;24.67;15.23;;;;;;;;;;5083762;28;20278;-71
2021/01/23 06:06:22;;;;;;;24.13;14.53;;;;;;;;;;5084989;28;20300;-71
2021/01/23 06:08:52;;;;;;;24.83;14.10;;;;;;;;;;5086691;28;20187;-71
2021/01/23 06:11:20;;;;;;;23.60;14.77;;;;;;;;;;5076865;28;20200;-71
2021/01/23 06:13:48;;;;;;;24.53;14.77;;;;;;;;;;5086994;28;20184;-71
2021/01/23 06:16:32;;;;;;;23.53;14.57;;;;;;;;;;5076183;28;20631;-71
2021/01/23 06:19:06;;;;;;;22.43;13.53;;;;;;;;;;5087391;28;20187;-71
2021/01/23 06:21:43;;;;;;;24.57;13.67;;;;;;;;;;5076411;28;20183;-71
2021/01/23 06:24:13;;;;;;;24.90;14.17;;;;;;;;;;5090028;28;20231;-71
2021/01/23 06:26:54;;;;;;;22.77;13.00;;;;;;;;;;5076894;28;20240;-71
2021/01/23 06:29:37;;;;;;;26.33;13.33;;;;;;;;;;5079946;28;20681;-70
2021/01/23 06:32:12;;;;;;;25.27;13.60;;;;;;;;;;5077618;28;20208;-70
2021/01/23 06:34:45;;;;;;;29.03;14.63;;;;;;;;;;5083570;28;20646;-71
2021/01/23 06:37:37;;;;;;;26.90;15.00;;;;;;;;;;5077599;28;20196;-71
2021/01/23 06:40:10;;;;;;;23.33;13.07;;;;;;;;;;5084019;28;20220;-71
2021/01/23 06:42:39;;;;;;;20.83;12.57;;;;;;;;;;5075696;28;20184;-71
2021/01/23 06:45:11;;;;;;;24.97;13.37;;;;;;;;;;5085946;28;20312;-70
2021/01/23 06:47:41;;;;;;;26.73;13.40;;;;;;;;;;5077024;28;20295;-71
2021/01/23 06:50:07;;;;;;;23.00;13.37;;;;;;;;;;5084779;28;20663;-71
2021/01/23 06:52:44;;;;;;;26.43;14.00;;;;;;;;;;5055418;28;20200;-72
2021/01/23 06:55:09;;;;;;;22.87;14.03;;;;;;;;;;5086174;28;20281;-72
2021/01/23 06:57:43;;;;;;;20.23;13.37;;;;;;;;;;5076218;28;20543;-71
2021/01/23 07:00:09;;;;;;;23.47;14.00;;;;;;;;;;5087226;28;20168;-71
2021/01/23 07:02:34;;;;;;;23.30;13.07;;;;;;;;;;5055113;28;20533;-71
2021/01/23 07:05:05;;;;;;;23.73;13.53;;;;;;;;;;5085659;28;20275;-71
2021/01/23 07:07:35;;;;;;;23.83;13.70;;;;;;;;;;5076517;28;20192;-72
2021/01/23 07:10:04;;;;;;;21.93;13.23;;;;;;;;;;5083495;28;20176;-70
2021/01/23 07:12:40;;;;;;;25.00;13.60;;;;;;;;;;5078485;28;20204;-71
2021/01/23 07:15:11;;;;;;;22.10;14.03;;;;;;;;;;5086212;28;20255;-71
2021/01/23 07:17:41;;;;;;;26.73;13.63;;;;;;;;;;5084289;28;20527;-71
2021/01/23 07:20:12;;;;;;;25.17;14.23;;;;;;;;;;5080018;28;20222;-71
2021/01/23 07:22:39;;;;;;;23.97;14.00;;;;;;;;;;5082710;28;20173;-71
2021/01/23 07:25:06;;;;;;;21.87;12.93;;;;;;;;;;5059095;28;20643;-71
2021/01/23 07:27:32;;;;;;;24.83;14.70;;;;;;;;;;5086739;28;20221;-71
2021/01/23 07:29:58;;;;;;;26.93;13.30;;;;;;;;;;5077208;28;20180;-71
2021/01/23 07:32:23;;;;;;;25.23;14.00;;;;;;;;;;5086390;28;20212;-71
2021/01/23 07:34:58;;;;;;;24.13;13.67;;;;;;;;;;5076539;28;20180;-71
2021/01/23 07:37:54;;;;;;;21.80;13.57;;;;;;;;;;5085268;28;20175;-71
2021/01/23 07:40:25;;;;;;;23.27;13.63;;;;;;;;;;5034706;28;20209;-71
2021/01/23 07:42:52;;;;;;;23.63;13.73;;;;;;;;;;5062749;28;20603;-72
2021/01/23 07:45:20;;;;;;;26.80;13.73;;;;;;;;;;5042952;28;20274;-72
2021/01/23 07:48:05;;;;;;;20.50;13.53;;;;;;;;;;5063327;28;20539;-71
2021/01/23 07:50:45;;;;;;;21.20;12.90;;;;;;;;;;5060539;28;20589;-71
2021/01/23 07:53:24;;;;;;;22.47;12.83;;;;;;;;;;5052124;28;20282;-71
2021/01/23 07:55:53;;;;;;;23.13;12.67;;;;;;;;;;5052599;28;20184;-71
2021/01/23 07:58:19;;;;;;;28.10;12.87;;;;;;;;;;5066044;28;20184;-71
2021/01/23 08:00:46;;;;;;;22.40;12.90;;;;;;;;;;5050382;28;20722;-72
2021/01/23 08:03:11;;;;;;;20.30;12.93;;;;;;;;;;5064196;28;20264;-71
2021/01/23 08:05:48;;;;;;;21.13;12.73;;;;;;;;;;5031591;28;22360;-71
2021/01/23 08:08:28;;;;;;;19.47;12.40;;;;;;;;;;5061193;28;20699;-71
2021/01/23 08:10:53;;;;;;;21.53;12.53;;;;;;;;;;5054228;28;20226;-70
2021/01/23 08:13:23;;;;;;;24.27;13.90;;;;;;;;;;5059857;28;20236;-70
2021/01/23 08:15:49;;;;;;;20.67;12.70;;;;;;;;;;5059107;28;20275;-70
2021/01/23 08:18:19;;;;;;;22.17;12.50;;;;;;;;;;5054576;28;20631;-71
2021/01/23 08:20:45;;;;;;;19.63;13.03;;;;;;;;;;5064780;28;20185;-70
2021/01/23 08:23:16;;;;;;;21.80;12.47;;;;;;;;;;5053484;28;20538;-70
2021/01/23 08:25:44;;;;;;;20.27;12.37;;;;;;;;;;5057900;28;20192;-70
2021/01/23 08:28:10;;;;;;;22.87;12.37;;;;;;;;;;5057278;28;20647;-71
2021/01/23 08:30:35;;;;;;;20.10;12.27;;;;;;;;;;5062538;28;20541;-71
2021/01/23 08:33:03;;;;;;;20.40;11.33;;;;;;;;;;5062718;28;20201;-71
2021/01/23 08:35:29;;;;;;;19.43;12.27;;;;;;;;;;5059449;28;20184;-71
2021/01/23 08:37:55;;;;;;;20.87;12.10;;;;;;;;;;5056780;28;20224;-71
2021/01/23 08:40:24;;;;;;;16.73;10.97;;;;;;;;;;5085621;28;20696;-72
2021/01/23 08:42:50;;;;;;;17.03;11.40;;;;;;;;;;5079709;28;20182;-70
2021/01/23 08:45:17;;;;;;;16.80;10.67;;;;;;;;;;5084854;28;20188;-72
2021/01/23 08:47:42;;;;;;;22.93;11.33;;;;;;;;;;5076680;28;20173;-72
2021/01/23 08:50:09;;;;;;;21.73;11.13;;;;;;;;;;5068195;28;20180;-71
2021/01/23 08:52:34;;;;;;;17.87;11.50;;;;;;;;;;5086481;28;20192;-72
2021/01/23 08:55:00;;;;;;;24.83;12.27;;;;;;;;;;5075651;28;20191;-71
2021/01/23 08:57:25;;;;;;;17.73;11.30;;;;;;;;;;5087856;28;20187;-71
2021/01/23 08:59:50;;;;;;;17.77;11.60;;;;;;;;;;5074634;28;20627;-71
2021/01/23 09:02:16;;;;;;;19.30;11.37;;;;;;;;;;5086706;28;20213;-71
2021/01/23 09:04:41;;;;;;;20.03;10.50;;;;;;;;;;5058229;28;20188;-71
2021/01/23 09:07:08;;;;;;;18.60;10.97;;;;;;;;;;5088221;28;20213;-71
2021/01/23 09:09:33;;;;;;;17.60;10.30;;;;;;;;;;5078923;28;20191;-71
2021/01/23 09:11:58;;;;;;;18.77;10.47;;;;;;;;;;5092501;28;20200;-71
2021/01/23 09:14:24;;;;;;;20.30;10.73;;;;;;;;;;5079802;28;20184;-71
2021/01/23 09:16:49;;;;;;;19.67;9.87;;;;;;;;;;5092354;28;20639;-71
2021/01/23 09:19:15;;;;;;;18.43;9.70;;;;;;;;;;5079522;28;20663;-71
2021/01/23 09:21:40;;;;;;;18.53;9.73;;;;;;;;;;5073466;28;20176;-71
2021/01/23 09:24:08;;;;;;;16.70;9.80;;;;;;;;;;5088295;28;20207;-71
2021/01/23 09:26:33;;;;;;;16.00;10.10;;;;;;;;;;5079309;28;20176;-71
2021/01/23 09:28:59;;;;;;;16.47;10.07;;;;;;;;;;5087855;28;20199;-70
2021/01/23 09:31:24;;;;;;;23.73;10.60;;;;;;;;;;5062538;28;20594;-70
2021/01/23 09:33:50;;;;;;;15.30;10.33;;;;;;;;;;5085607;28;20191;-70
2021/01/23 09:36:16;;;;;;;14.20;8.93;;;;;;;;;;5083630;28;20183;-70
2021/01/23 09:38:41;;;;;;;17.07;9.70;;;;;;;;;;5079305;28;20231;-71
2021/01/23 09:41:09;;;;;;;15.00;10.23;;;;;;;;;;5083373;28;20586;-71
2021/01/23 09:43:35;;;;;;;24.53;10.53;;;;;;;;;;5087636;28;20262;-70
2021/01/23 09:46:00;;;;;;;15.97;9.90;;;;;;;;;;5082845;28;20184;-70
2021/01/23 09:48:26;;;;;;;19.07;9.50;;;;;;;;;;5085442;28;20234;-70
2021/01/23 09:50:51;;;;;;;16.23;9.93;;;;;;;;;;5082101;28;20164;-70
2021/01/23 09:53:16;;;;;;;17.23;10.20;;;;;;;;;;5087447;28;20303;-70
2021/01/23 09:55:42;;;;;;;15.67;10.13;;;;;;;;;;5058487;28;20176;-70
2021/01/23 09:58:08;;;;;;;18.73;10.13;;;;;;;;;;5078460;28;20191;-70
2021/01/23 10:00:33;;;;;;;16.63;9.87;;;;;;;;;;5068751;28;20169;-70
2021/01/23 10:02:59;;;;;;;14.30;9.40;;;;;;;;;;5071930;28;20184;-70
2021/01/23 10:05:25;;;;;;;16.83;9.70;;;;;;;;;;5087335;28;20200;-72
2021/01/23 10:07:50;;;;;;;16.70;10.10;;;;;;;;;;5073324;28;20187;-71
2021/01/23 10:10:16;;;;;;;18.23;10.37;;;;;;;;;;5090449;28;20259;-71
2021/01/23 10:12:41;;;;;;;16.90;10.20;;;;;;;;;;5074391;28;20626;-71
2021/01/23 10:15:07;;;;;;;14.83;10.13;;;;;;;;;;5087414;28;20187;-71
2021/01/23 10:17:32;;;;;;;16.57;10.17;;;;;;;;;;5073160;28;20208;-71
2021/01/23 10:19:58;;;;;;;15.50;9.43;;;;;;;;;;5087436;28;20215;-70
2021/01/23 10:22:23;;;;;;;18.03;9.53;;;;;;;;;;5079977;28;21088;-70
2021/01/23 10:24:49;;;;;;;16.97;9.47;;;;;;;;;;5079862;28;20187;-71
2021/01/23 10:27:14;;;;;;;16.63;9.70;;;;;;;;;;5085018;28;20449;-70
2021/01/23 10:29:40;;;;;;;14.03;8.20;;;;;;;;;;5076228;28;20187;-70
2021/01/23 10:32:05;;;;;;;14.97;9.17;;;;;;;;;;5083453;28;20215;-70
2021/01/23 10:34:31;;;;;;;13.43;8.00;;;;;;;;;;5078639;28;20180;-70
2021/01/23 10:36:56;;;;;;;16.93;8.60;;;;;;;;;;5084651;28;20216;-70
2021/01/23 10:39:21;;;;;;;14.03;8.47;;;;;;;;;;5067079;28;20232;-70
2021/01/23 10:41:47;;;;;;;12.37;7.87;;;;;;;;;;5067053;28;20264;-69
2021/01/23 10:44:12;;;;;;;13.37;7.50;;;;;;;;;;5058214;28;20189;-70
2021/01/23 10:46:38;;;;;;;12.83;8.03;;;;;;;;;;5065201;28;20219;-70
2021/01/23 10:49:04;;;;;;;15.77;8.10;;;;;;;;;;5061851;28;20268;-71
2021/01/23 10:51:30;;;;;;;13.33;8.27;;;;;;;;;;5065840;28;20196;-71
2021/01/23 10:53:56;;;;;;;20.63;9.00;;;;;;;;;;5065718;28;20181;-71
2021/01/23 10:56:21;;;;;;;11.00;7.13;;;;;;;;;;5061421;28;20181;-71
2021/01/23 10:58:46;;;;;;;12.50;7.57;;;;;;;;;;5065968;28;20173;-71
2021/01/23 11:01:12;;;;;;;15.40;8.63;;;;;;;;;;5054389;28;20710;-71
2021/01/23 11:03:37;;;;;;;16.27;9.13;;;;;;;;;;5065304;28;20181;-71
2021/01/23 11:06:03;;;;;;;15.03;8.03;;;;;;;;;;5055359;28;20209;-71
2021/01/23 11:08:28;;;;;;;14.37;8.63;;;;;;;;;;5066060;28;20614;-71
2021/01/23 11:10:53;;;;;;;13.60;8.00;;;;;;;;;;5056326;28;20719;-71
2021/01/23 11:13:19;;;;;;;13.20;7.70;;;;;;;;;;5063832;28;20217;-71
2021/01/23 11:15:45;;;;;;;14.23;8.33;;;;;;;;;;5033800;28;20275;-71
2021/01/23 11:18:10;;;;;;;14.97;8.23;;;;;;;;;;5066093;28;20223;-71
2021/01/23 11:20:35;;;;;;;15.53;8.33;;;;;;;;;;5055632;28;20253;-71
2021/01/23 11:23:01;;;;;;;15.37;7.87;;;;;;;;;;5068118;28;20648;-72
2021/01/23 11:25:27;;;;;;;14.27;8.63;;;;;;;;;;5066086;28;20188;-72
2021/01/23 11:27:54;;;;;;;15.90;8.40;;;;;;;;;;5058079;28;20304;-72
2021/01/23 11:30:20;;;;;;;15.03;9.10;;;;;;;;;;5051624;28;20181;-71
2021/01/23 11:32:46;;;;;;;16.30;8.13;;;;;;;;;;5050260;28;20208;-71
2021/01/23 11:35:11;;;;;;;14.47;8.27;;;;;;;;;;5065473;28;20203;-71
2021/01/23 11:37:36;;;;;;;12.33;7.53;;;;;;;;;;5059274;28;20237;-71
2021/01/23 11:40:04;;;;;;;17.57;8.60;;;;;;;;;;5081922;28;20718;-71
2021/01/23 11:42:29;;;;;;;12.70;7.80;;;;;;;;;;5076454;28;20192;-71
2021/01/23 11:44:55;;;;;;;11.97;7.07;;;;;;;;;;5084677;28;20557;-71
2021/01/23 11:47:20;;;;;;;9.93;7.03;;;;;;;;;;5075079;28;20192;-71
2021/01/23 11:49:46;;;;;;;14.77;7.47;;;;;;;;;;5081367;28;20221;-70
2021/01/23 11:52:12;;;;;;;12.33;7.20;;;;;;;;;;5076962;28;20230;-71
2021/01/23 11:54:38;;;;;;;9.50;6.00;;;;;;;;;;5084195;28;20652;-71
2021/01/23 11:57:06;;;;;;;12.73;6.40;;;;;;;;;;5084165;28;20184;-72
2021/01/23 11:59:32;;;;;;;14.03;6.77;;;;;;;;;;5073641;28;20188;-72
2021/01/23 12:01:57;;;;;;;13.23;6.70;;;;;;;;;;5084138;28;20172;-71
2021/01/23 12:04:23;;;;;;;14.33;6.80;;;;;;;;;;5076089;28;20184;-71
2021/01/23 12:06:48;;;;;;;11.43;6.10;;;;;;;;;;5085790;28;20204;-71
2021/01/23 12:09:13;;;;;;;9.50;6.00;;;;;;;;;;5075846;28;20176;-71
2021/01/23 12:11:39;;;;;;;12.90;6.37;;;;;;;;;;5085727;28;20230;-72
2021/01/23 12:14:04;;;;;;;11.07;6.60;;;;;;;;;;5074994;28;20180;-72
2021/01/23 12:16:30;;;;;;;11.70;6.90;;;;;;;;;;5086427;28;20241;-71
2021/01/23 12:18:55;;;;;;;11.37;6.63;;;;;;;;;;5075186;28;20195;-71
2021/01/23 12:21:23;;;;;;;8.93;6.13;;;;;;;;;;5091739;28;20194;-72
2021/01/23 12:23:48;;;;;;;14.40;6.93;;;;;;;;;;5058685;28;20186;-71
2021/01/23 12:26:14;;;;;;;11.80;6.83;;;;;;;;;;5084502;28;20180;-71
2021/01/23 12:28:39;;;;;;;13.37;6.00;;;;;;;;;;5085609;28;20172;-72
2021/01/23 12:31:04;;;;;;;11.73;6.07;;;;;;;;;;5082553;28;20277;-71
2021/01/23 12:33:30;;;;;;;14.23;6.57;;;;;;;;;;5083644;28;20187;-72
2021/01/23 12:35:55;;;;;;;9.77;6.13;;;;;;;;;;5077388;28;20655;-72
2021/01/23 12:38:20;;;;;;;13.77;7.20;;;;;;;;;;5078494;28;20582;-71
2021/01/23 12:40:46;;;;;;;13.07;6.67;;;;;;;;;;5071881;28;20192;-72
2021/01/23 12:43:11;;;;;;;11.93;6.10;;;;;;;;;;5066495;28;20221;-71
2021/01/23 12:45:36;;;;;;;10.33;5.83;;;;;;;;;;5074810;28;20202;-71
2021/01/23 12:48:02;;;;;;;10.77;5.63;;;;;;;;;;5087862;28;20180;-71
2021/01/23 12:50:28;;;;;;;6.90;5.10;;;;;;;;;;5081667;28;20569;-70
2021/01/23 12:52:53;;;;;;;11.57;5.33;;;;;;;;;;5088785;28;20208;-71
2021/01/23 12:55:18;;;;;;;9.03;4.77;;;;;;;;;;5080716;28;20191;-70
2021/01/23 12:57:44;;;;;;;9.27;5.50;;;;;;;;;;5087300;28;20695;-72
2021/01/23 13:00:10;;;;;;;11.07;5.97;;;;;;;;;;5090374;28;20210;-71
2021/01/23 13:02:36;;;;;;;9.73;5.60;;;;;;;;;;5078607;28;20172;-70
2021/01/23 13:05:06;;;;;;;9.67;5.37;;;;;;;;;;5088205;28;20338;-70
2021/01/23 13:07:31;;;;;;;10.53;5.40;;;;;;;;;;5080116;28;20191;-70
2021/01/23 13:09:57;;;;;;;10.97;5.37;;;;;;;;;;5089622;28;20187;-70
2021/01/23 13:12:22;;;;;;;8.60;4.83;;;;;;;;;;5079686;28;20230;-69
2021/01/23 13:14:48;;;;;;;9.77;5.17;;;;;;;;;;5088993;28;20523;-70
2021/01/23 13:17:13;;;;;;;10.10;4.87;;;;;;;;;;5081401;28;20238;-70
2021/01/23 13:19:39;;;;;;;11.97;5.27;;;;;;;;;;5089320;28;20267;-70
2021/01/23 13:22:04;;;;;;;9.10;5.47;;;;;;;;;;5078560;28;20183;-70
2021/01/23 13:24:29;;;;;;;13.73;5.40;;;;;;;;;;5090929;28;20277;-70
2021/01/23 13:26:55;;;;;;;7.83;5.03;;;;;;;;;;5080067;28;20195;-70
2021/01/23 13:29:20;;;;;;;9.60;5.07;;;;;;;;;;5087755;28;20219;-70
2021/01/23 13:31:45;;;;;;;11.73;5.80;;;;;;;;;;5085853;28;20291;-70
2021/01/23 13:34:11;;;;;;;13.67;5.23;;;;;;;;;;5080303;28;20237;-70
2021/01/23 13:36:36;;;;;;;9.83;5.40;;;;;;;;;;5086243;28;20180;-72
2021/01/23 13:39:03;;;;;;;10.03;5.10;;;;;;;;;;5078423;28;20314;-70
2021/01/23 13:41:28;;;;;;;9.47;5.27;;;;;;;;;;5088035;28;20627;-70
2021/01/23 13:43:53;;;;;;;8.67;5.50;;;;;;;;;;5079482;28;20314;-70
2021/01/23 13:46:19;;;;;;;10.83;5.63;;;;;;;;;;5085257;28;20212;-70
2021/01/23 13:48:44;;;;;;;10.37;5.10;;;;;;;;;;5054657;28;20643;-71
2021/01/23 13:51:09;;;;;;;8.97;5.37;;;;;;;;;;5087692;28;20519;-70
2021/01/23 13:53:35;;;;;;;11.00;5.87;;;;;;;;;;5078056;28;20220;-70
2021/01/23 13:56:00;;;;;;;8.90;5.30;;;;;;;;;;5085947;28;20236;-70
2021/01/23 13:58:26;;;;;;;13.03;5.20;;;;;;;;;;5077278;28;20195;-70
2021/01/23 14:00:51;;;;;;;10.83;5.43;;;;;;;;;;5087522;28;20169;-70
2021/01/23 14:03:16;;;;;;;9.03;4.90;;;;;;;;;;5086551;28;20184;-70
2021/01/23 14:05:42;;;;;;;10.37;5.00;;;;;;;;;;5077240;28;20207;-70
2021/01/23 14:08:07;;;;;;;13.50;5.13;;;;;;;;;;5085002;28;20184;-70
2021/01/23 14:10:33;;;;;;;7.03;5.17;;;;;;;;;;5077205;28;20214;-70
2021/01/23 14:12:58;;;;;;;9.60;4.87;;;;;;;;;;5083724;28;20211;-70
2021/01/23 14:15:25;;;;;;;10.20;5.27;;;;;;;;;;5076462;28;20241;-70
2021/01/23 14:17:51;;;;;;;12.77;5.77;;;;;;;;;;5086500;28;20188;-70
2021/01/23 14:20:17;;;;;;;12.23;5.57;;;;;;;;;;5077720;28;20534;-70
2021/01/23 14:22:42;;;;;;;9.27;5.53;;;;;;;;;;5087195;28;20180;-71